Clarks Landing, Indiana
Current Conditions -  °F | °C
As of 10:55 PM on Sunday 23 Nov 2014 (Local Time) from KANQ Reporting Station
Overcast Overcast  
Wind Chill: 50°   Ceiling: 600
Heat Index: 50°   Visibility: 4mi
Dew Point: 39°   Wind: 10mph
Humidity: 66%   Direction: 140°SE
Pressure: 29.22"   Gusts: NA
Location:  41.5557°N, 84.8806°W
Report Text: KANQ 240355Z AUTO 14009KT 4SM OVC006 10/04 A2922 RMK
Loading
Personal Weather Stations






























Interactive Weather Map New forecast layout! Learn more

10-Day Weather Forecast

Advertisements
Track Severe Weather on mobile